sensor_id;sensor_type;location;lat;lon;timestamp;P1;durP1;ratioP1;P2;durP2;ratioP2
72388;SDS011;60566;48.062;9.930;2023-03-04T00:01:11;61.83;;;26.10;;
72388;SDS011;60566;48.062;9.930;2023-03-04T00:03:38;62.88;;;28.48;;
72388;SDS011;60566;48.062;9.930;2023-03-04T00:06:04;68.63;;;27.35;;
72388;SDS011;60566;48.062;9.930;2023-03-04T00:08:29;59.65;;;24.83;;
72388;SDS011;60566;48.062;9.930;2023-03-04T00:10:55;59.28;;;25.33;;
72388;SDS011;60566;48.062;9.930;2023-03-04T00:13:20;62.88;;;26.25;;
72388;SDS011;60566;48.062;9.930;2023-03-04T00:15:46;58.17;;;26.10;;
72388;SDS011;60566;48.062;9.930;2023-03-04T00:18:11;67.18;;;26.63;;
72388;SDS011;60566;48.062;9.930;2023-03-04T00:20:38;60.60;;;25.42;;
72388;SDS011;60566;48.062;9.930;2023-03-04T00:23:03;64.65;;;27.95;;
72388;SDS011;60566;48.062;9.930;2023-03-04T00:25:29;63.90;;;26.95;;
72388;SDS011;60566;48.062;9.930;2023-03-04T00:27:54;62.42;;;26.90;;
72388;SDS011;60566;48.062;9.930;2023-03-04T00:30:20;63.70;;;25.40;;
72388;SDS011;60566;48.062;9.930;2023-03-04T00:32:46;62.17;;;25.10;;
72388;SDS011;60566;48.062;9.930;2023-03-04T00:35:11;64.60;;;26.10;;
72388;SDS011;60566;48.062;9.930;2023-03-04T00:37:38;60.17;;;25.50;;
72388;SDS011;60566;48.062;9.930;2023-03-04T00:40:04;58.55;;;26.25;;
72388;SDS011;60566;48.062;9.930;2023-03-04T00:42:30;66.53;;;27.00;;
72388;SDS011;60566;48.062;9.930;2023-03-04T00:44:55;60.75;;;25.73;;
72388;SDS011;60566;48.062;9.930;2023-03-04T00:47:20;67.97;;;27.05;;
72388;SDS011;60566;48.062;9.930;2023-03-04T00:49:46;59.03;;;26.42;;
72388;SDS011;60566;48.062;9.930;2023-03-04T00:52:11;61.60;;;26.30;;
72388;SDS011;60566;48.062;9.930;2023-03-04T00:54:38;63.78;;;27.67;;
72388;SDS011;60566;48.062;9.930;2023-03-04T00:57:03;70.53;;;26.08;;
72388;SDS011;60566;48.062;9.930;2023-03-04T00:59:29;61.05;;;25.60;;
72388;SDS011;60566;48.062;9.930;2023-03-04T01:01:54;59.60;;;24.42;;
72388;SDS011;60566;48.062;9.930;2023-03-04T01:04:19;58.05;;;25.30;;
72388;SDS011;60566;48.062;9.930;2023-03-04T01:06:45;60.80;;;26.17;;
72388;SDS011;60566;48.062;9.930;2023-03-04T01:09:10;60.05;;;25.75;;
72388;SDS011;60566;48.062;9.930;2023-03-04T01:11:37;59.05;;;25.73;;
72388;SDS011;60566;48.062;9.930;2023-03-04T01:14:02;68.50;;;25.95;;
72388;SDS011;60566;48.062;9.930;2023-03-04T01:16:27;58.80;;;26.10;;
72388;SDS011;60566;48.062;9.930;2023-03-04T01:18:53;65.65;;;26.15;;
72388;SDS011;60566;48.062;9.930;2023-03-04T01:21:18;62.08;;;26.05;;
72388;SDS011;60566;48.062;9.930;2023-03-04T01:23:43;61.08;;;26.10;;
72388;SDS011;60566;48.062;9.930;2023-03-04T01:26:09;61.28;;;25.17;;
72388;SDS011;60566;48.062;9.930;2023-03-04T01:28:36;60.38;;;25.70;;
72388;SDS011;60566;48.062;9.930;2023-03-04T01:31:01;70.60;;;28.10;;
72388;SDS011;60566;48.062;9.930;2023-03-04T01:33:27;71.28;;;28.58;;
72388;SDS011;60566;48.062;9.930;2023-03-04T01:35:52;72.07;;;29.92;;
72388;SDS011;60566;48.062;9.930;2023-03-04T01:38:17;71.93;;;27.65;;
72388;SDS011;60566;48.062;9.930;2023-03-04T01:40:43;67.10;;;26.77;;
72388;SDS011;60566;48.062;9.930;2023-03-04T01:43:10;60.40;;;25.15;;
72388;SDS011;60566;48.062;9.930;2023-03-04T01:45:38;59.80;;;24.50;;
72388;SDS011;60566;48.062;9.930;2023-03-04T01:48:03;67.88;;;27.98;;
72388;SDS011;60566;48.062;9.930;2023-03-04T01:50:30;86.40;;;30.42;;
72388;SDS011;60566;48.062;9.930;2023-03-04T01:52:56;103.15;;;38.78;;
72388;SDS011;60566;48.062;9.930;2023-03-04T01:55:22;95.63;;;35.20;;
72388;SDS011;60566;48.062;9.930;2023-03-04T01:57:48;77.47;;;30.10;;
72388;SDS011;60566;48.062;9.930;2023-03-04T02:03:00;70.50;;;28.55;;
72388;SDS011;60566;48.062;9.930;2023-03-04T02:05:28;70.63;;;28.27;;
72388;SDS011;60566;48.062;9.930;2023-03-04T02:07:54;67.68;;;26.55;;
72388;SDS011;60566;48.062;9.930;2023-03-04T02:10:20;61.97;;;25.52;;
72388;SDS011;60566;48.062;9.930;2023-03-04T02:12:45;65.70;;;27.17;;
72388;SDS011;60566;48.062;9.930;2023-03-04T02:15:11;59.67;;;25.67;;
72388;SDS011;60566;48.062;9.930;2023-03-04T02:17:37;56.13;;;23.85;;
72388;SDS011;60566;48.062;9.930;2023-03-04T02:20:05;65.65;;;27.17;;
72388;SDS011;60566;48.062;9.930;2023-03-04T02:22:37;63.80;;;25.92;;
72388;SDS011;60566;48.062;9.930;2023-03-04T02:25:07;68.07;;;26.63;;
72388;SDS011;60566;48.062;9.930;2023-03-04T02:27:37;59.35;;;25.13;;
72388;SDS011;60566;48.062;9.930;2023-03-04T02:30:02;60.13;;;26.88;;
72388;SDS011;60566;48.062;9.930;2023-03-04T02:32:28;64.03;;;28.17;;
72388;SDS011;60566;48.062;9.930;2023-03-04T02:34:53;68.90;;;27.45;;
72388;SDS011;60566;48.062;9.930;2023-03-04T02:37:20;66.70;;;28.15;;
72388;SDS011;60566;48.062;9.930;2023-03-04T02:39:46;65.68;;;27.63;;
72388;SDS011;60566;48.062;9.930;2023-03-04T02:42:12;62.10;;;26.90;;
72388;SDS011;60566;48.062;9.930;2023-03-04T02:44:40;63.10;;;26.35;;
72388;SDS011;60566;48.062;9.930;2023-03-04T02:47:08;62.05;;;26.58;;
72388;SDS011;60566;48.062;9.930;2023-03-04T02:49:35;58.28;;;25.17;;
72388;SDS011;60566;48.062;9.930;2023-03-04T02:52:03;65.97;;;25.33;;
72388;SDS011;60566;48.062;9.930;2023-03-04T02:54:30;58.83;;;25.25;;
72388;SDS011;60566;48.062;9.930;2023-03-04T02:56:56;66.75;;;27.92;;
72388;SDS011;60566;48.062;9.930;2023-03-04T02:59:22;66.85;;;26.10;;
72388;SDS011;60566;48.062;9.930;2023-03-04T03:01:49;63.45;;;25.65;;
72388;SDS011;60566;48.062;9.930;2023-03-04T03:04:15;65.22;;;27.48;;
72388;SDS011;60566;48.062;9.930;2023-03-04T03:06:40;62.88;;;26.55;;
72388;SDS011;60566;48.062;9.930;2023-03-04T03:09:06;65.63;;;27.83;;
72388;SDS011;60566;48.062;9.930;2023-03-04T03:11:31;65.60;;;26.35;;
72388;SDS011;60566;48.062;9.930;2023-03-04T03:13:57;61.88;;;27.67;;
72388;SDS011;60566;48.062;9.930;2023-03-04T03:16:22;66.53;;;27.88;;
72388;SDS011;60566;48.062;9.930;2023-03-04T03:18:49;64.43;;;27.20;;
72388;SDS011;60566;48.062;9.930;2023-03-04T03:21:15;62.03;;;25.88;;
72388;SDS011;60566;48.062;9.930;2023-03-04T03:23:40;62.13;;;26.33;;
72388;SDS011;60566;48.062;9.930;2023-03-04T03:26:06;64.97;;;27.67;;
72388;SDS011;60566;48.062;9.930;2023-03-04T03:28:31;59.53;;;26.52;;
72388;SDS011;60566;48.062;9.930;2023-03-04T03:30:56;60.42;;;26.05;;
72388;SDS011;60566;48.062;9.930;2023-03-04T03:33:22;63.50;;;25.70;;
72388;SDS011;60566;48.062;9.930;2023-03-04T03:35:49;71.28;;;28.52;;
72388;SDS011;60566;48.062;9.930;2023-03-04T03:38:14;74.75;;;28.20;;
72388;SDS011;60566;48.062;9.930;2023-03-04T03:40:40;63.80;;;27.65;;
72388;SDS011;60566;48.062;9.930;2023-03-04T03:43:05;60.60;;;25.70;;
72388;SDS011;60566;48.062;9.930;2023-03-04T03:45:30;68.95;;;27.63;;
72388;SDS011;60566;48.062;9.930;2023-03-04T03:47:56;64.22;;;24.50;;
72388;SDS011;60566;48.062;9.930;2023-03-04T03:50:21;63.08;;;27.67;;
72388;SDS011;60566;48.062;9.930;2023-03-04T03:52:48;60.35;;;24.90;;
72388;SDS011;60566;48.062;9.930;2023-03-04T03:55:14;62.78;;;26.50;;
72388;SDS011;60566;48.062;9.930;2023-03-04T03:57:39;66.05;;;26.33;;
72388;SDS011;60566;48.062;9.930;2023-03-04T04:00:05;62.00;;;28.70;;
72388;SDS011;60566;48.062;9.930;2023-03-04T04:02:32;65.72;;;29.77;;
72388;SDS011;60566;48.062;9.930;2023-03-04T04:04:57;66.40;;;28.45;;
72388;SDS011;60566;48.062;9.930;2023-03-04T04:07:23;65.68;;;27.52;;
72388;SDS011;60566;48.062;9.930;2023-03-04T04:09:49;67.75;;;28.00;;
72388;SDS011;60566;48.062;9.930;2023-03-04T04:12:15;64.03;;;28.40;;
72388;SDS011;60566;48.062;9.930;2023-03-04T04:14:42;68.93;;;27.60;;
72388;SDS011;60566;48.062;9.930;2023-03-04T04:17:08;67.13;;;29.08;;
72388;SDS011;60566;48.062;9.930;2023-03-04T04:19:33;67.75;;;25.80;;
72388;SDS011;60566;48.062;9.930;2023-03-04T04:21:58;70.00;;;29.33;;
72388;SDS011;60566;48.062;9.930;2023-03-04T04:24:24;65.18;;;28.40;;
72388;SDS011;60566;48.062;9.930;2023-03-04T04:26:51;66.70;;;27.13;;
72388;SDS011;60566;48.062;9.930;2023-03-04T04:29:16;60.88;;;26.77;;
72388;SDS011;60566;48.062;9.930;2023-03-04T04:31:42;71.63;;;29.55;;
72388;SDS011;60566;48.062;9.930;2023-03-04T04:34:07;70.32;;;28.98;;
72388;SDS011;60566;48.062;9.930;2023-03-04T04:36:33;69.18;;;27.80;;
72388;SDS011;60566;48.062;9.930;2023-03-04T04:38:58;62.42;;;28.50;;
72388;SDS011;60566;48.062;9.930;2023-03-04T04:41:24;79.22;;;33.83;;
72388;SDS011;60566;48.062;9.930;2023-03-04T04:43:52;86.20;;;39.65;;
72388;SDS011;60566;48.062;9.930;2023-03-04T04:46:18;79.30;;;31.40;;
72388;SDS011;60566;48.062;9.930;2023-03-04T04:48:43;68.85;;;29.40;;
72388;SDS011;60566;48.062;9.930;2023-03-04T04:51:08;62.75;;;28.48;;
72388;SDS011;60566;48.062;9.930;2023-03-04T04:53:34;73.63;;;30.15;;
72388;SDS011;60566;48.062;9.930;2023-03-04T04:55:59;76.47;;;32.08;;
72388;SDS011;60566;48.062;9.930;2023-03-04T04:58:25;71.43;;;29.80;;
72388;SDS011;60566;48.062;9.930;2023-03-04T05:00:51;72.13;;;30.45;;
72388;SDS011;60566;48.062;9.930;2023-03-04T05:03:20;69.80;;;30.13;;
72388;SDS011;60566;48.062;9.930;2023-03-04T05:05:45;78.00;;;31.02;;
72388;SDS011;60566;48.062;9.930;2023-03-04T05:08:11;67.40;;;29.50;;
72388;SDS011;60566;48.062;9.930;2023-03-04T05:10:36;75.43;;;31.55;;
72388;SDS011;60566;48.062;9.930;2023-03-04T05:13:01;67.60;;;30.02;;
72388;SDS011;60566;48.062;9.930;2023-03-04T05:15:27;76.55;;;31.10;;
72388;SDS011;60566;48.062;9.930;2023-03-04T05:17:53;74.53;;;31.23;;
72388;SDS011;60566;48.062;9.930;2023-03-04T05:20:19;74.00;;;30.48;;
72388;SDS011;60566;48.062;9.930;2023-03-04T05:22:44;65.68;;;30.10;;
72388;SDS011;60566;48.062;9.930;2023-03-04T05:25:09;74.10;;;29.45;;
72388;SDS011;60566;48.062;9.930;2023-03-04T05:27:35;68.63;;;29.10;;
72388;SDS011;60566;48.062;9.930;2023-03-04T05:30:00;71.13;;;28.85;;
72388;SDS011;60566;48.062;9.930;2023-03-04T05:32:25;73.53;;;28.98;;
72388;SDS011;60566;48.062;9.930;2023-03-04T05:34:52;68.78;;;28.08;;
72388;SDS011;60566;48.062;9.930;2023-03-04T05:37:18;75.80;;;31.60;;
72388;SDS011;60566;48.062;9.930;2023-03-04T05:39:43;71.85;;;30.35;;
72388;SDS011;60566;48.062;9.930;2023-03-04T05:42:08;71.72;;;31.40;;
72388;SDS011;60566;48.062;9.930;2023-03-04T05:44:34;69.25;;;28.92;;
72388;SDS011;60566;48.062;9.930;2023-03-04T05:46:59;75.97;;;31.80;;
72388;SDS011;60566;48.062;9.930;2023-03-04T05:49:25;71.13;;;28.02;;
72388;SDS011;60566;48.062;9.930;2023-03-04T05:51:51;77.78;;;29.75;;
72388;SDS011;60566;48.062;9.930;2023-03-04T05:54:17;73.53;;;29.27;;
72388;SDS011;60566;48.062;9.930;2023-03-04T05:56:43;66.50;;;26.48;;
72388;SDS011;60566;48.062;9.930;2023-03-04T05:59:08;70.05;;;28.85;;
72388;SDS011;60566;48.062;9.930;2023-03-04T06:01:34;76.20;;;29.58;;
72388;SDS011;60566;48.062;9.930;2023-03-04T06:03:59;74.78;;;30.08;;
72388;SDS011;60566;48.062;9.930;2023-03-04T06:06:24;68.88;;;29.08;;
72388;SDS011;60566;48.062;9.930;2023-03-04T06:08:51;68.82;;;29.40;;
72388;SDS011;60566;48.062;9.930;2023-03-04T06:11:17;64.57;;;27.90;;
72388;SDS011;60566;48.062;9.930;2023-03-04T06:13:42;68.80;;;28.52;;
72388;SDS011;60566;48.062;9.930;2023-03-04T06:16:08;67.20;;;28.95;;
72388;SDS011;60566;48.062;9.930;2023-03-04T06:18:35;69.80;;;28.58;;
72388;SDS011;60566;48.062;9.930;2023-03-04T06:21:01;66.20;;;27.50;;
72388;SDS011;60566;48.062;9.930;2023-03-04T06:23:28;69.93;;;29.08;;
72388;SDS011;60566;48.062;9.930;2023-03-04T06:25:56;69.30;;;29.10;;
72388;SDS011;60566;48.062;9.930;2023-03-04T06:28:22;70.90;;;29.15;;
72388;SDS011;60566;48.062;9.930;2023-03-04T06:30:50;71.07;;;29.27;;
72388;SDS011;60566;48.062;9.930;2023-03-04T06:33:15;75.45;;;29.73;;
72388;SDS011;60566;48.062;9.930;2023-03-04T06:35:41;74.53;;;30.80;;
72388;SDS011;60566;48.062;9.930;2023-03-04T06:38:06;65.10;;;28.88;;
72388;SDS011;60566;48.062;9.930;2023-03-04T06:40:31;71.68;;;29.38;;
72388;SDS011;60566;48.062;9.930;2023-03-04T06:42:58;66.45;;;28.27;;
72388;SDS011;60566;48.062;9.930;2023-03-04T06:45:23;75.50;;;29.98;;
72388;SDS011;60566;48.062;9.930;2023-03-04T06:47:49;71.63;;;29.63;;
72388;SDS011;60566;48.062;9.930;2023-03-04T06:50:14;72.00;;;29.50;;
72388;SDS011;60566;48.062;9.930;2023-03-04T06:52:40;75.72;;;31.55;;
72388;SDS011;60566;48.062;9.930;2023-03-04T06:55:06;73.55;;;28.67;;
72388;SDS011;60566;48.062;9.930;2023-03-04T06:57:32;68.38;;;27.70;;
72388;SDS011;60566;48.062;9.930;2023-03-04T06:59:58;71.60;;;30.05;;
72388;SDS011;60566;48.062;9.930;2023-03-04T07:02:24;70.50;;;30.33;;
72388;SDS011;60566;48.062;9.930;2023-03-04T07:04:49;75.97;;;30.65;;
72388;SDS011;60566;48.062;9.930;2023-03-04T07:07:15;73.43;;;30.27;;
72388;SDS011;60566;48.062;9.930;2023-03-04T07:09:40;71.38;;;29.45;;
72388;SDS011;60566;48.062;9.930;2023-03-04T07:12:06;80.93;;;33.15;;
72388;SDS011;60566;48.062;9.930;2023-03-04T07:14:31;76.45;;;31.42;;
72388;SDS011;60566;48.062;9.930;2023-03-04T07:16:58;72.93;;;30.23;;
72388;SDS011;60566;48.062;9.930;2023-03-04T07:19:23;73.75;;;30.70;;
72388;SDS011;60566;48.062;9.930;2023-03-04T07:21:49;82.13;;;32.35;;
72388;SDS011;60566;48.062;9.930;2023-03-04T07:24:14;70.70;;;32.45;;
72388;SDS011;60566;48.062;9.930;2023-03-04T07:26:39;79.32;;;33.03;;
72388;SDS011;60566;48.062;9.930;2023-03-04T07:29:05;79.93;;;32.38;;
72388;SDS011;60566;48.062;9.930;2023-03-04T07:31:31;78.32;;;30.45;;
72388;SDS011;60566;48.062;9.930;2023-03-04T07:33:59;79.93;;;32.70;;
72388;SDS011;60566;48.062;9.930;2023-03-04T07:36:25;82.15;;;33.83;;
72388;SDS011;60566;48.062;9.930;2023-03-04T07:38:50;88.90;;;35.65;;
72388;SDS011;60566;48.062;9.930;2023-03-04T07:41:16;82.18;;;35.75;;
72388;SDS011;60566;48.062;9.930;2023-03-04T07:43:43;82.47;;;32.20;;
72388;SDS011;60566;48.062;9.930;2023-03-04T07:46:08;77.68;;;32.47;;
72388;SDS011;60566;48.062;9.930;2023-03-04T07:48:34;94.30;;;36.45;;
72388;SDS011;60566;48.062;9.930;2023-03-04T07:51:06;82.63;;;33.78;;
72388;SDS011;60566;48.062;9.930;2023-03-04T07:53:32;76.90;;;31.85;;
72388;SDS011;60566;48.062;9.930;2023-03-04T07:55:58;83.85;;;32.05;;
72388;SDS011;60566;48.062;9.930;2023-03-04T07:58:23;80.70;;;33.00;;
72388;SDS011;60566;48.062;9.930;2023-03-04T08:00:49;82.38;;;32.40;;
72388;SDS011;60566;48.062;9.930;2023-03-04T08:03:14;87.88;;;33.33;;
72388;SDS011;60566;48.062;9.930;2023-03-04T08:05:40;78.57;;;32.90;;
72388;SDS011;60566;48.062;9.930;2023-03-04T08:08:06;82.78;;;35.63;;
72388;SDS011;60566;48.062;9.930;2023-03-04T08:10:32;78.57;;;31.42;;
72388;SDS011;60566;48.062;9.930;2023-03-04T08:12:57;81.85;;;33.13;;
72388;SDS011;60566;48.062;9.930;2023-03-04T08:15:23;74.72;;;29.33;;
72388;SDS011;60566;48.062;9.930;2023-03-04T08:17:48;74.95;;;31.40;;
72388;SDS011;60566;48.062;9.930;2023-03-04T08:20:13;79.15;;;32.08;;
72388;SDS011;60566;48.062;9.930;2023-03-04T08:22:39;72.22;;;30.70;;
72388;SDS011;60566;48.062;9.930;2023-03-04T08:25:06;82.88;;;31.88;;
72388;SDS011;60566;48.062;9.930;2023-03-04T08:27:31;71.00;;;30.85;;
72388;SDS011;60566;48.062;9.930;2023-03-04T08:29:57;74.60;;;32.80;;
72388;SDS011;60566;48.062;9.930;2023-03-04T08:32:22;73.88;;;29.48;;
72388;SDS011;60566;48.062;9.930;2023-03-04T08:34:48;71.35;;;29.15;;
72388;SDS011;60566;48.062;9.930;2023-03-04T08:37:13;68.72;;;29.15;;
72388;SDS011;60566;48.062;9.930;2023-03-04T08:39:41;64.43;;;29.05;;
72388;SDS011;60566;48.062;9.930;2023-03-04T08:42:08;78.32;;;31.60;;
72388;SDS011;60566;48.062;9.930;2023-03-04T08:44:34;72.47;;;30.63;;
72388;SDS011;60566;48.062;9.930;2023-03-04T08:47:00;71.65;;;29.90;;
72388;SDS011;60566;48.062;9.930;2023-03-04T08:49:26;67.47;;;29.60;;
72388;SDS011;60566;48.062;9.930;2023-03-04T08:51:51;75.10;;;30.40;;
72388;SDS011;60566;48.062;9.930;2023-03-04T08:54:17;67.97;;;27.95;;
72388;SDS011;60566;48.062;9.930;2023-03-04T08:56:42;79.47;;;31.50;;
72388;SDS011;60566;48.062;9.930;2023-03-04T08:59:09;68.43;;;28.75;;
72388;SDS011;60566;48.062;9.930;2023-03-04T09:01:34;68.53;;;29.50;;
72388;SDS011;60566;48.062;9.930;2023-03-04T09:03:59;68.07;;;29.35;;
72388;SDS011;60566;48.062;9.930;2023-03-04T09:06:25;63.97;;;28.27;;
72388;SDS011;60566;48.062;9.930;2023-03-04T09:08:50;64.95;;;28.58;;
72388;SDS011;60566;48.062;9.930;2023-03-04T09:11:15;64.70;;;27.42;;
72388;SDS011;60566;48.062;9.930;2023-03-04T09:13:41;62.25;;;28.80;;
72388;SDS011;60566;48.062;9.930;2023-03-04T09:16:09;63.80;;;26.08;;
72388;SDS011;60566;48.062;9.930;2023-03-04T09:18:35;65.72;;;26.42;;
72388;SDS011;60566;48.062;9.930;2023-03-04T09:21:00;67.80;;;27.30;;
72388;SDS011;60566;48.062;9.930;2023-03-04T09:23:26;72.45;;;28.85;;
72388;SDS011;60566;48.062;9.930;2023-03-04T09:25:51;60.70;;;25.75;;
72388;SDS011;60566;48.062;9.930;2023-03-04T09:28:17;74.40;;;28.15;;
72388;SDS011;60566;48.062;9.930;2023-03-04T09:30:43;65.90;;;28.30;;
72388;SDS011;60566;48.062;9.930;2023-03-04T09:33:10;57.63;;;26.30;;
72388;SDS011;60566;48.062;9.930;2023-03-04T09:35:36;69.22;;;28.55;;
72388;SDS011;60566;48.062;9.930;2023-03-04T09:38:01;67.53;;;27.23;;
72388;SDS011;60566;48.062;9.930;2023-03-04T09:40:31;63.75;;;26.35;;
72388;SDS011;60566;48.062;9.930;2023-03-04T09:43:04;67.90;;;27.40;;
72388;SDS011;60566;48.062;9.930;2023-03-04T09:45:33;67.07;;;26.73;;
72388;SDS011;60566;48.062;9.930;2023-03-04T09:48:01;65.45;;;26.25;;
72388;SDS011;60566;48.062;9.930;2023-03-04T09:50:28;66.45;;;26.10;;
72388;SDS011;60566;48.062;9.930;2023-03-04T09:52:58;67.65;;;28.15;;
72388;SDS011;60566;48.062;9.930;2023-03-04T09:55:31;64.82;;;27.02;;
72388;SDS011;60566;48.062;9.930;2023-03-04T09:57:59;68.53;;;26.60;;
72388;SDS011;60566;48.062;9.930;2023-03-04T10:00:31;71.78;;;27.67;;
72388;SDS011;60566;48.062;9.930;2023-03-04T10:03:04;70.13;;;26.60;;
72388;SDS011;60566;48.062;9.930;2023-03-04T10:05:38;64.68;;;27.30;;
72388;SDS011;60566;48.062;9.930;2023-03-04T10:08:11;64.07;;;26.30;;
72388;SDS011;60566;48.062;9.930;2023-03-04T10:10:45;61.25;;;26.50;;
72388;SDS011;60566;48.062;9.930;2023-03-04T10:13:13;62.92;;;28.23;;
72388;SDS011;60566;48.062;9.930;2023-03-04T10:15:41;69.88;;;28.08;;
72388;SDS011;60566;48.062;9.930;2023-03-04T10:18:12;64.25;;;26.27;;
72388;SDS011;60566;48.062;9.930;2023-03-04T10:20:46;61.80;;;27.15;;
72388;SDS011;60566;48.062;9.930;2023-03-04T10:23:17;57.78;;;24.90;;
72388;SDS011;60566;48.062;9.930;2023-03-04T10:25:44;56.50;;;24.08;;
72388;SDS011;60566;48.062;9.930;2023-03-04T10:28:10;54.38;;;23.63;;
72388;SDS011;60566;48.062;9.930;2023-03-04T10:30:42;61.25;;;24.40;;
72388;SDS011;60566;48.062;9.930;2023-03-04T10:33:12;53.97;;;24.38;;
72388;SDS011;60566;48.062;9.930;2023-03-04T10:35:38;59.95;;;24.75;;
72388;SDS011;60566;48.062;9.930;2023-03-04T10:38:05;60.05;;;26.25;;
72388;SDS011;60566;48.062;9.930;2023-03-04T10:40:36;60.78;;;26.33;;
72388;SDS011;60566;48.062;9.930;2023-03-04T10:43:02;63.00;;;24.63;;
72388;SDS011;60566;48.062;9.930;2023-03-04T10:45:30;62.17;;;25.30;;
72388;SDS011;60566;48.062;9.930;2023-03-04T10:47:55;63.95;;;26.35;;
72388;SDS011;60566;48.062;9.930;2023-03-04T10:50:21;65.20;;;27.65;;
72388;SDS011;60566;48.062;9.930;2023-03-04T10:52:49;64.78;;;27.77;;
72388;SDS011;60566;48.062;9.930;2023-03-04T10:55:16;67.47;;;26.40;;
72388;SDS011;60566;48.062;9.930;2023-03-04T10:57:43;65.13;;;26.45;;
72388;SDS011;60566;48.062;9.930;2023-03-04T11:00:22;61.50;;;25.77;;
72388;SDS011;60566;48.062;9.930;2023-03-04T11:02:49;59.85;;;23.60;;
72388;SDS011;60566;48.062;9.930;2023-03-04T11:05:16;61.13;;;25.90;;
72388;SDS011;60566;48.062;9.930;2023-03-04T11:07:43;55.92;;;25.10;;
72388;SDS011;60566;48.062;9.930;2023-03-04T11:10:13;61.38;;;26.58;;
72388;SDS011;60566;48.062;9.930;2023-03-04T11:12:46;59.08;;;25.52;;
72388;SDS011;60566;48.062;9.930;2023-03-04T11:15:16;55.25;;;23.33;;
72388;SDS011;60566;48.062;9.930;2023-03-04T11:17:44;62.85;;;25.67;;
72388;SDS011;60566;48.062;9.930;2023-03-04T11:20:12;55.92;;;25.40;;
72388;SDS011;60566;48.062;9.930;2023-03-04T11:22:41;53.30;;;24.58;;
72388;SDS011;60566;48.062;9.930;2023-03-04T11:25:11;59.72;;;25.30;;
72388;SDS011;60566;48.062;9.930;2023-03-04T11:27:49;63.40;;;24.55;;
72388;SDS011;60566;48.062;9.930;2023-03-04T11:30:24;60.03;;;24.25;;
72388;SDS011;60566;48.062;9.930;2023-03-04T11:32:54;58.85;;;26.13;;
72388;SDS011;60566;48.062;9.930;2023-03-04T11:35:22;51.70;;;23.55;;
72388;SDS011;60566;48.062;9.930;2023-03-04T11:37:51;55.42;;;22.67;;
72388;SDS011;60566;48.062;9.930;2023-03-04T11:40:22;50.28;;;22.88;;
72388;SDS011;60566;48.062;9.930;2023-03-04T11:42:53;53.90;;;22.60;;
72388;SDS011;60566;48.062;9.930;2023-03-04T11:47:49;48.97;;;22.02;;
72388;SDS011;60566;48.062;9.930;2023-03-04T11:50:34;53.72;;;20.95;;
72388;SDS011;60566;48.062;9.930;2023-03-04T11:55:55;49.72;;;21.85;;
72388;SDS011;60566;48.062;9.930;2023-03-04T11:58:35;56.30;;;24.13;;
72388;SDS011;60566;48.062;9.930;2023-03-04T12:01:07;60.28;;;24.67;;
72388;SDS011;60566;48.062;9.930;2023-03-04T12:03:39;60.20;;;23.65;;
72388;SDS011;60566;48.062;9.930;2023-03-04T12:06:10;54.45;;;21.67;;
72388;SDS011;60566;48.062;9.930;2023-03-04T12:08:53;60.25;;;24.23;;
72388;SDS011;60566;48.062;9.930;2023-03-04T12:11:29;57.70;;;23.63;;
72388;SDS011;60566;48.062;9.930;2023-03-04T12:14:06;58.33;;;23.25;;
72388;SDS011;60566;48.062;9.930;2023-03-04T12:16:41;61.97;;;25.33;;
72388;SDS011;60566;48.062;9.930;2023-03-04T12:19:19;53.55;;;22.77;;
72388;SDS011;60566;48.062;9.930;2023-03-04T12:21:53;55.25;;;24.00;;
72388;SDS011;60566;48.062;9.930;2023-03-04T12:24:30;51.35;;;23.25;;
72388;SDS011;60566;48.062;9.930;2023-03-04T12:27:04;49.22;;;21.05;;
72388;SDS011;60566;48.062;9.930;2023-03-04T12:29:37;51.28;;;23.02;;
72388;SDS011;60566;48.062;9.930;2023-03-04T12:32:09;50.33;;;21.48;;
72388;SDS011;60566;48.062;9.930;2023-03-04T12:34:42;48.13;;;20.90;;
72388;SDS011;60566;48.062;9.930;2023-03-04T12:37:28;51.60;;;22.35;;
72388;SDS011;60566;48.062;9.930;2023-03-04T12:40:13;49.15;;;21.63;;
72388;SDS011;60566;48.062;9.930;2023-03-04T12:42:48;47.03;;;21.08;;
72388;SDS011;60566;48.062;9.930;2023-03-04T12:45:23;47.33;;;20.17;;
72388;SDS011;60566;48.062;9.930;2023-03-04T12:47:51;56.88;;;23.00;;
72388;SDS011;60566;48.062;9.930;2023-03-04T12:50:28;46.65;;;20.35;;
72388;SDS011;60566;48.062;9.930;2023-03-04T12:52:57;44.85;;;19.30;;
72388;SDS011;60566;48.062;9.930;2023-03-04T12:55:29;45.10;;;20.08;;
72388;SDS011;60566;48.062;9.930;2023-03-04T12:58:00;52.05;;;20.42;;
72388;SDS011;60566;48.062;9.930;2023-03-04T13:00:28;43.78;;;19.45;;
72388;SDS011;60566;48.062;9.930;2023-03-04T13:03:02;46.75;;;19.25;;
72388;SDS011;60566;48.062;9.930;2023-03-04T13:05:35;41.95;;;19.50;;
72388;SDS011;60566;48.062;9.930;2023-03-04T13:08:08;53.35;;;22.27;;
72388;SDS011;60566;48.062;9.930;2023-03-04T13:10:40;48.33;;;19.83;;
72388;SDS011;60566;48.062;9.930;2023-03-04T13:13:15;46.33;;;20.13;;
72388;SDS011;60566;48.062;9.930;2023-03-04T13:16:00;42.13;;;18.58;;
72388;SDS011;60566;48.062;9.930;2023-03-04T13:18:29;45.95;;;18.65;;
72388;SDS011;60566;48.062;9.930;2023-03-04T13:21:06;40.88;;;18.05;;
72388;SDS011;60566;48.062;9.930;2023-03-04T13:23:40;41.72;;;17.67;;
72388;SDS011;60566;48.062;9.930;2023-03-04T13:26:07;39.55;;;18.35;;
72388;SDS011;60566;48.062;9.930;2023-03-04T13:28:43;40.55;;;16.45;;
72388;SDS011;60566;48.062;9.930;2023-03-04T13:31:16;37.10;;;14.77;;
72388;SDS011;60566;48.062;9.930;2023-03-04T13:33:54;33.78;;;13.10;;
72388;SDS011;60566;48.062;9.930;2023-03-04T13:38:57;30.52;;;12.27;;
72388;SDS011;60566;48.062;9.930;2023-03-04T13:41:29;35.38;;;14.82;;
72388;SDS011;60566;48.062;9.930;2023-03-04T13:43:57;33.75;;;14.20;;
72388;SDS011;60566;48.062;9.930;2023-03-04T13:46:30;34.28;;;15.45;;
72388;SDS011;60566;48.062;9.930;2023-03-04T13:49:05;37.63;;;14.50;;
72388;SDS011;60566;48.062;9.930;2023-03-04T13:51:33;33.92;;;13.73;;
72388;SDS011;60566;48.062;9.930;2023-03-04T13:54:06;35.47;;;15.25;;
72388;SDS011;60566;48.062;9.930;2023-03-04T13:56:36;34.40;;;15.15;;
72388;SDS011;60566;48.062;9.930;2023-03-04T13:59:07;36.95;;;16.10;;
72388;SDS011;60566;48.062;9.930;2023-03-04T14:01:46;38.20;;;15.88;;
72388;SDS011;60566;48.062;9.930;2023-03-04T14:04:16;36.35;;;15.63;;
72388;SDS011;60566;48.062;9.930;2023-03-04T14:06:43;34.38;;;14.70;;
72388;SDS011;60566;48.062;9.930;2023-03-04T14:09:11;31.20;;;14.10;;
72388;SDS011;60566;48.062;9.930;2023-03-04T14:11:38;35.33;;;15.02;;
72388;SDS011;60566;48.062;9.930;2023-03-04T14:14:05;32.67;;;14.15;;
72388;SDS011;60566;48.062;9.930;2023-03-04T14:16:34;35.22;;;15.73;;
72388;SDS011;60566;48.062;9.930;2023-03-04T14:19:03;32.30;;;13.73;;
72388;SDS011;60566;48.062;9.930;2023-03-04T14:21:29;35.10;;;14.10;;
72388;SDS011;60566;48.062;9.930;2023-03-04T14:23:59;38.45;;;15.65;;
72388;SDS011;60566;48.062;9.930;2023-03-04T14:26:29;36.00;;;14.68;;
72388;SDS011;60566;48.062;9.930;2023-03-04T14:28:55;35.55;;;14.75;;
72388;SDS011;60566;48.062;9.930;2023-03-04T14:31:22;29.35;;;12.77;;
72388;SDS011;60566;48.062;9.930;2023-03-04T14:33:49;35.65;;;13.82;;